Time;durP1;ratioP1;P1;durP2;ratioP2;P2;SDS_P1;SDS_P2;PMS_P1;PMS_P2;Temp;Humidity;BMP_temperature;BMP_pressure;BME280_temperature;BME280_humidity;BME280_pressure;Samples;Min_cycle;Max_cycle;Signal;HPM_P1;HPM_P2
2023/06/20 00:01:33;;;;;;;3.13;0.77;;;;;;;22.49;32.66;101416.38;4994648;28;20022;-56
2023/06/20 00:03:59;;;;;;;1.08;0.45;;;;;;;22.34;33.83;101423.44;4995111;28;20022;-56
2023/06/20 00:06:25;;;;;;;4.00;0.70;;;;;;;22.10;34.17;101419.59;4995076;28;20022;-57
2023/06/20 00:08:52;;;;;;;2.83;0.90;;;;;;;22.05;34.46;101412.19;4994831;28;20030;-57
2023/06/20 00:11:18;;;;;;;2.83;0.80;;;;;;;22.08;34.72;101417.09;4994742;28;20501;-54
2023/06/20 00:13:44;;;;;;;1.63;0.55;;;;;;;21.85;33.70;101418.38;4994626;28;20014;-57
2023/06/20 00:16:10;;;;;;;2.88;0.63;;;;;;;21.60;34.77;101408.22;4994810;28;20023;-58
2023/06/20 00:18:37;;;;;;;3.92;0.68;;;;;;;21.57;34.63;101422.34;4994739;28;20038;-57
2023/06/20 00:21:03;;;;;;;6.20;0.88;;;;;;;21.72;34.36;101413.44;4995230;28;20097;-58
2023/06/20 00:23:30;;;;;;;2.92;0.73;;;;;;;21.53;35.53;101423.16;4994462;28;20057;-58
2023/06/20 00:25:56;;;;;;;5.75;0.80;;;;;;;21.22;34.95;101417.50;4994331;28;20089;-57
2023/06/20 00:28:23;;;;;;;2.85;0.95;;;;;;;21.17;37.09;101424.84;4994308;28;20386;-58
2023/06/20 00:30:49;;;;;;;3.08;0.80;;;;;;;21.17;37.15;101417.47;4993501;28;20395;-58
2023/06/20 00:33:18;;;;;;;2.63;0.73;;;;;;;21.27;36.73;101414.81;4994287;28;20031;-58
2023/06/20 00:35:45;;;;;;;2.47;1.00;;;;;;;21.06;36.87;101416.59;4994051;28;20475;-58
2023/06/20 00:38:11;;;;;;;1.75;0.77;;;;;;;21.17;36.30;101413.94;4994167;28;20113;-58
2023/06/20 00:40:37;;;;;;;2.33;0.70;;;;;;;21.38;36.17;101414.88;4993707;28;20050;-61
2023/06/20 00:43:04;;;;;;;2.78;0.65;;;;;;;21.09;36.03;101407.88;4994078;28;20022;-59
2023/06/20 00:45:35;;;;;;;1.88;0.65;;;;;;;21.27;36.51;101406.66;4994154;28;20062;-61
2023/06/20 00:48:03;;;;;;;2.55;0.68;;;;;;;21.33;36.79;101418.44;4994447;28;20030;-61
2023/06/20 00:50:31;;;;;;;1.70;0.88;;;;;;;21.35;36.52;101408.06;4994014;28;20026;-61
2023/06/20 00:53:05;;;;;;;1.92;0.47;;;;;;;20.99;36.39;101401.59;4993888;28;20030;-60
2023/06/20 00:55:33;;;;;;;3.83;0.85;;;;;;;20.74;38.31;101405.75;4994072;28;20026;-61
2023/06/20 00:58:00;;;;;;;1.27;0.60;;;;;;;20.81;36.79;101406.31;4993950;28;20030;-61
2023/06/20 01:00:32;;;;;;;4.40;0.90;;;;;;;20.69;37.37;101404.88;4993744;28;20030;-60
2023/06/20 01:03:06;;;;;;;2.92;0.73;;;;;;;20.73;36.86;101406.00;4993820;28;20395;-60
2023/06/20 01:05:33;;;;;;;3.60;1.02;;;;;;;20.39;37.32;101413.56;4994187;28;20031;-60
2023/06/20 01:08:28;;;;;;;3.15;0.70;;;;;;;20.23;38.80;101402.53;4994200;28;20044;-60
2023/06/20 01:11:29;;;;;;;2.45;0.90;;;;;;;20.27;38.11;101398.22;4993751;28;20041;-60
2023/06/20 01:13:55;;;;;;;2.42;0.90;;;;;;;20.29;38.80;101406.94;4985270;28;20100;-61
2023/06/20 01:16:30;;;;;;;3.40;0.95;;;;;;;20.49;40.11;101409.06;4994474;28;20472;-60
2023/06/20 01:19:12;;;;;;;3.70;0.73;;;;;;;20.43;39.00;101404.63;4993846;28;20034;-67
2023/06/20 01:21:52;;;;;;;7.15;1.35;;;;;;;20.47;39.39;101405.78;4993655;28;20483;-61
2023/06/20 01:24:46;;;;;;;1.90;0.73;;;;;;;20.59;38.39;101411.03;4993497;28;20085;-64
2023/06/20 01:27:37;;;;;;;4.57;0.90;;;;;;;20.49;38.20;101413.69;4993840;28;20022;-58
2023/06/20 01:30:09;;;;;;;3.05;0.80;;;;;;;20.38;38.48;101411.94;4993845;28;20471;-57
2023/06/20 01:32:46;;;;;;;4.20;1.00;;;;;;;20.45;38.13;101416.06;4994166;28;20034;-57
2023/06/20 01:35:15;;;;;;;2.25;0.85;;;;;;;20.40;37.69;101415.19;4993777;28;20080;-58
2023/06/20 01:37:44;;;;;;;2.70;0.77;;;;;;;20.59;37.23;101419.19;4993469;28;20054;-58
2023/06/20 01:40:14;;;;;;;3.75;1.02;;;;;;;20.67;37.77;101424.19;4993267;28;20053;-60
2023/06/20 01:42:42;;;;;;;3.08;0.88;;;;;;;20.39;37.99;101419.00;4995884;28;20045;-58
2023/06/20 01:45:12;;;;;;;2.20;0.60;;;;;;;20.39;38.06;101427.16;4997395;28;20059;-62
2023/06/20 01:47:40;;;;;;;3.65;1.60;;;;;;;20.33;38.23;101420.84;4997362;28;20026;-62
2023/06/20 01:50:07;;;;;;;2.95;0.85;;;;;;;20.27;39.17;101432.75;4997319;28;20450;-62
2023/06/20 01:52:37;;;;;;;5.28;1.05;;;;;;;20.39;38.96;101421.72;5012432;28;20390;-60
2023/06/20 01:55:08;;;;;;;2.65;0.82;;;;;;;20.34;38.85;101427.09;4997378;28;20508;-61
2023/06/20 01:57:35;;;;;;;2.85;0.98;;;;;;;20.47;39.28;101424.00;4997200;28;20034;-63
2023/06/20 02:00:11;;;;;;;3.70;0.90;;;;;;;20.58;38.07;101419.47;5012167;28;20022;-61
2023/06/20 02:02:38;;;;;;;2.47;0.80;;;;;;;20.89;37.93;101431.44;4997526;28;20041;-61
2023/06/20 02:05:07;;;;;;;1.63;0.82;;;;;;;21.04;38.07;101423.34;4997140;28;20032;-61
2023/06/20 02:07:36;;;;;;;3.15;1.02;;;;;;;21.32;37.20;101431.22;4997196;28;20037;-61
2023/06/20 02:10:03;;;;;;;2.30;0.98;;;;;;;21.81;36.99;101428.16;4997046;28;20058;-61
2023/06/20 02:12:31;;;;;;;2.80;1.40;;;;;;;21.73;36.56;101431.41;4996898;28;20030;-61
2023/06/20 02:14:59;;;;;;;2.20;1.25;;;;;;;21.95;36.14;101423.06;4997258;28;20117;-61
2023/06/20 02:17:28;;;;;;;3.42;1.20;;;;;;;22.28;35.50;101438.16;4996930;28;20030;-61
2023/06/20 02:19:54;;;;;;;3.95;1.10;;;;;;;22.09;35.85;101435.06;4996839;28;20026;-61
2023/06/20 02:22:25;;;;;;;2.85;0.80;;;;;;;22.59;35.42;101427.28;4996664;28;20034;-61
2023/06/20 02:24:53;;;;;;;1.65;0.88;;;;;;;22.48;35.57;101431.09;4997191;28;20371;-62
2023/06/20 02:27:22;;;;;;;2.75;0.82;;;;;;;22.10;35.52;101422.31;4996580;28;20037;-61
2023/06/20 02:29:50;;;;;;;3.72;0.95;;;;;;;21.85;36.00;101428.47;4996559;28;20054;-62
2023/06/20 02:32:19;;;;;;;4.25;1.13;;;;;;;22.05;35.65;101436.72;4996641;28;20120;-61
2023/06/20 02:34:48;;;;;;;2.13;0.98;;;;;;;20.99;37.39;101426.88;4996612;28;20510;-61
2023/06/20 02:37:15;;;;;;;2.45;0.90;;;;;;;21.17;37.54;101433.00;4996613;28;20030;-61
2023/06/20 02:39:42;;;;;;;4.75;1.35;;;;;;;21.11;37.93;101423.16;4996196;28;20026;-62
2023/06/20 02:42:08;;;;;;;3.60;1.08;;;;;;;21.15;37.90;101419.63;4996705;28;20495;-61
2023/06/20 02:44:35;;;;;;;4.88;1.02;;;;;;;21.32;37.42;101427.66;4996296;28;20053;-61
2023/06/20 02:47:15;;;;;;;2.35;0.93;;;;;;;21.39;36.98;101419.28;4996346;28;20022;-61
2023/06/20 02:49:59;;;;;;;3.20;1.10;;;;;;;21.22;37.59;101424.88;4996359;28;20027;-61
2023/06/20 02:52:50;;;;;;;2.85;0.98;;;;;;;21.31;37.67;101426.03;4996493;28;20030;-61
2023/06/20 02:55:41;;;;;;;3.03;0.80;;;;;;;21.25;37.65;101419.69;5010709;28;20395;-61
2023/06/20 02:58:13;;;;;;;2.17;1.00;;;;;;;20.64;38.82;101426.59;4996177;28;20088;-61
2023/06/20 03:00:46;;;;;;;3.00;0.98;;;;;;;20.22;39.80;101427.25;4995888;28;20026;-61
2023/06/20 03:03:19;;;;;;;3.30;1.00;;;;;;;19.85;40.57;101433.38;4996246;28;20098;-62
2023/06/20 03:05:47;;;;;;;2.78;1.02;;;;;;;19.41;41.78;101429.78;4995929;28;20076;-62
2023/06/20 03:08:17;;;;;;;2.58;0.85;;;;;;;19.42;42.06;101434.94;4995891;28;20387;-63
2023/06/20 03:10:45;;;;;;;2.63;1.10;;;;;;;18.94;43.08;101439.13;4996103;28;20395;-63
2023/06/20 03:13:15;;;;;;;3.88;1.15;;;;;;;18.99;43.30;101435.69;4996440;28;20031;-63
2023/06/20 03:15:42;;;;;;;3.70;1.30;;;;;;;18.74;43.62;101444.22;4995749;28;20113;-63
2023/06/20 03:18:08;;;;;;;4.25;1.25;;;;;;;18.40;44.37;101440.59;4995675;28;20025;-63
2023/06/20 03:20:35;;;;;;;3.33;1.30;;;;;;;18.33;44.93;101448.06;4996022;28;20030;-63
2023/06/20 03:23:01;;;;;;;4.57;1.40;;;;;;;18.13;45.34;101443.91;4995677;28;20479;-63
2023/06/20 03:25:27;;;;;;;4.35;1.50;;;;;;;18.03;45.73;101451.00;4995594;28;20034;-63
2023/06/20 03:27:53;;;;;;;4.00;1.05;;;;;;;18.04;45.90;101447.22;4995831;28;20077;-63
2023/06/20 03:30:20;;;;;;;4.07;1.13;;;;;;;18.18;45.66;101445.88;4995543;28;20034;-63
2023/06/20 03:32:46;;;;;;;4.95;1.38;;;;;;;17.88;46.48;101444.22;4995790;28;20027;-63
2023/06/20 03:35:12;;;;;;;6.25;1.30;;;;;;;17.49;47.33;101453.94;4995458;28;20030;-63
2023/06/20 03:37:39;;;;;;;8.23;1.38;;;;;;;17.15;48.12;101452.84;4995308;28;20057;-63
2023/06/20 03:40:05;;;;;;;4.20;1.00;;;;;;;17.02;48.61;101451.19;4995091;28;20042;-63
2023/06/20 03:42:32;;;;;;;4.35;1.60;;;;;;;16.68;49.65;101460.06;4995458;28;20081;-63
2023/06/20 03:44:58;;;;;;;5.20;1.38;;;;;;;16.48;50.26;101463.84;4995354;28;20030;-63
2023/06/20 03:47:24;;;;;;;5.40;1.23;;;;;;;16.71;49.63;101459.59;4995505;28;20018;-63
2023/06/20 03:49:50;;;;;;;4.85;1.27;;;;;;;16.12;50.71;101464.78;4995146;28;20042;-62
2023/06/20 03:52:17;;;;;;;5.88;1.38;;;;;;;15.98;51.64;101474.09;4995091;28;20026;-62
2023/06/20 03:54:43;;;;;;;5.70;1.60;;;;;;;15.72;52.53;101475.25;4995229;28;20379;-63
2023/06/20 03:57:09;;;;;;;11.73;1.88;;;;;;;15.76;52.50;101481.81;4995130;28;20052;-62
2023/06/20 03:59:35;;;;;;;3.75;1.67;;;;;;;15.77;52.61;101478.09;4995042;28;20472;-62
2023/06/20 04:02:02;;;;;;;4.82;1.50;;;;;;;15.71;52.77;101477.13;4994711;28;20030;-62
2023/06/20 04:04:29;;;;;;;4.15;1.20;;;;;;;15.52;53.15;101478.09;4994876;28;20085;-62
2023/06/20 04:06:55;;;;;;;3.47;1.52;;;;;;;15.63;53.19;101485.50;4994998;28;20026;-62
2023/06/20 04:09:26;;;;;;;4.72;1.45;;;;;;;15.62;53.06;101481.13;4994825;28;20030;-62
2023/06/20 04:11:53;;;;;;;6.15;1.80;;;;;;;15.81;52.93;101493.59;4994779;28;20026;-63
2023/06/20 04:14:20;;;;;;;5.15;1.30;;;;;;;15.88;52.53;101485.44;4994904;28;20054;-62
2023/06/20 04:16:49;;;;;;;4.47;1.52;;;;;;;15.91;52.27;101486.84;4994621;28;20376;-62
2023/06/20 04:19:19;;;;;;;4.70;1.27;;;;;;;15.95;52.45;101496.97;4994606;28;20446;-63
2023/06/20 04:21:45;;;;;;;6.30;1.77;;;;;;;15.75;53.01;101501.75;4994476;28;20058;-62
2023/06/20 04:24:11;;;;;;;3.47;1.27;;;;;;;15.73;52.89;101502.00;4994412;28;20030;-62
2023/06/20 04:26:38;;;;;;;4.00;1.58;;;;;;;15.98;52.56;101504.59;4994448;28;20467;-62
2023/06/20 04:29:04;;;;;;;8.18;1.80;;;;;;;15.76;52.96;101500.72;4994681;28;20536;-63
2023/06/20 04:31:30;;;;;;;2.58;1.30;;;;;;;15.86;53.40;101506.41;4994326;28;20037;-62
2023/06/20 04:33:57;;;;;;;3.72;1.80;;;;;;;15.82;53.26;101514.16;4994190;28;20121;-62
2023/06/20 04:36:24;;;;;;;4.82;1.67;;;;;;;15.82;53.68;101519.56;4994230;28;20030;-62
2023/06/20 04:38:50;;;;;;;2.83;1.35;;;;;;;15.92;53.20;101519.00;4994510;28;20027;-62
2023/06/20 04:41:16;;;;;;;3.33;1.20;;;;;;;15.84;53.69;101530.13;4994024;28;20053;-62
2023/06/20 04:43:44;;;;;;;5.20;1.77;;;;;;;15.78;53.48;101528.31;4994473;28;20019;-62
2023/06/20 04:46:15;;;;;;;6.03;1.60;;;;;;;15.54;54.20;101548.84;4994030;28;20018;-62
2023/06/20 04:48:44;;;;;;;5.10;1.40;;;;;;;15.54;54.09;101546.16;5009149;28;20547;-62
2023/06/20 04:51:11;;;;;;;3.75;1.30;;;;;;;15.58;54.12;101547.38;4994053;28;20034;-62
2023/06/20 04:53:38;;;;;;;4.60;1.27;;;;;;;15.44;54.85;101535.06;4993994;28;20030;-62
2023/06/20 04:56:05;;;;;;;5.35;1.58;;;;;;;15.27;55.33;101538.31;4993896;28;20029;-62
2023/06/20 04:58:31;;;;;;;5.18;1.38;;;;;;;15.35;55.27;101545.28;4993896;28;20510;-62
2023/06/20 05:00:59;;;;;;;7.05;1.70;;;;;;;15.30;55.31;101553.22;4993836;28;20027;-61
2023/06/20 05:03:26;;;;;;;3.03;1.38;;;;;;;15.25;55.52;101561.94;4993913;28;20026;-62
2023/06/20 05:05:52;;;;;;;4.80;1.50;;;;;;;15.11;56.00;101559.59;4993828;28;20072;-62
2023/06/20 05:08:19;;;;;;;2.85;1.30;;;;;;;15.05;56.29;101562.13;4993766;28;20109;-62
2023/06/20 05:10:45;;;;;;;8.25;1.50;;;;;;;15.15;56.17;101563.47;4993729;28;20030;-62
2023/06/20 05:13:11;;;;;;;3.70;1.23;;;;;;;15.12;56.17;101572.03;4993963;28;20494;-62
2023/06/20 05:15:37;;;;;;;7.07;1.95;;;;;;;15.13;56.37;101568.28;4993722;28;20026;-62
2023/06/20 05:18:04;;;;;;;4.13;1.60;;;;;;;15.12;56.16;101570.16;4993270;28;20387;-62
2023/06/20 05:20:30;;;;;;;4.72;1.63;;;;;;;15.04;56.62;101565.00;4993518;28;20025;-62
2023/06/20 05:22:56;;;;;;;4.60;1.40;;;;;;;14.99;56.87;101567.53;4993801;28;20026;-62
2023/06/20 05:25:22;;;;;;;7.63;1.77;;;;;;;14.89;57.12;101570.72;5008819;28;20109;-62
2023/06/20 05:27:49;;;;;;;3.45;1.33;;;;;;;14.90;57.07;101579.63;4993506;28;20028;-62
2023/06/20 05:30:15;;;;;;;4.53;1.67;;;;;;;14.88;57.38;101581.69;5008539;28;20027;-62
2023/06/20 05:32:41;;;;;;;7.82;1.95;;;;;;;14.79;58.05;101579.28;4993467;28;20053;-62
2023/06/20 05:35:08;;;;;;;4.95;1.60;;;;;;;14.73;58.41;101590.09;4993446;28;20037;-61
2023/06/20 05:37:34;;;;;;;3.60;1.52;;;;;;;14.78;58.20;101598.34;4994320;28;20030;-62
2023/06/20 05:40:01;;;;;;;5.63;1.75;;;;;;;14.97;58.11;101596.59;4993917;28;20050;-62
2023/06/20 05:42:27;;;;;;;7.85;1.90;;;;;;;14.77;58.49;101600.22;4993493;28;20530;-61
2023/06/20 05:44:53;;;;;;;8.10;1.80;;;;;;;14.79;58.40;101605.41;4993296;28;20097;-61
2023/06/20 05:47:20;;;;;;;5.22;2.05;;;;;;;14.77;58.47;101600.22;4993397;28;20054;-62
2023/06/20 05:49:48;;;;;;;5.50;1.52;;;;;;;14.85;58.42;101601.84;4993245;28;20034;-62
2023/06/20 05:52:17;;;;;;;5.18;1.80;;;;;;;14.58;59.36;101603.81;4993171;28;20038;-61
2023/06/20 05:54:43;;;;;;;5.50;1.83;;;;;;;14.65;59.17;101607.31;4993147;28;20498;-61
2023/06/20 05:57:10;;;;;;;6.75;2.10;;;;;;;14.59;59.60;101605.47;4993244;28;20022;-62
2023/06/20 05:59:36;;;;;;;4.97;1.80;;;;;;;14.69;59.11;101605.03;4993214;28;20506;-61
2023/06/20 06:02:04;;;;;;;5.47;1.70;;;;;;;14.57;59.53;101602.19;4993080;28;20476;-61
2023/06/20 06:04:33;;;;;;;4.93;1.45;;;;;;;14.58;59.57;101597.63;4993411;28;20026;-61
2023/06/20 06:06:59;;;;;;;3.63;1.65;;;;;;;14.64;59.31;101607.53;4993090;28;20049;-61
2023/06/20 06:09:25;;;;;;;5.88;1.90;;;;;;;14.70;59.17;101612.06;4993239;28;20030;-61
2023/06/20 06:11:52;;;;;;;7.95;1.77;;;;;;;14.68;59.35;101614.16;4993151;28;20027;-61
2023/06/20 06:14:18;;;;;;;5.35;1.52;;;;;;;14.67;59.11;101612.50;4993096;28;20042;-61
2023/06/20 06:16:44;;;;;;;5.13;1.65;;;;;;;14.61;59.38;101608.81;4993388;28;20022;-61
2023/06/20 06:19:11;;;;;;;4.32;1.48;;;;;;;14.61;59.41;101607.97;4993211;28;20364;-61
2023/06/20 06:21:37;;;;;;;4.45;1.75;;;;;;;14.70;59.23;101604.81;4992976;28;20030;-61
2023/06/20 06:24:04;;;;;;;4.40;1.23;;;;;;;14.58;59.47;101603.81;4993076;28;20018;-61
2023/06/20 06:26:30;;;;;;;5.05;1.45;;;;;;;14.59;59.31;101610.88;4992952;28;20050;-61
2023/06/20 06:28:56;;;;;;;3.20;1.30;;;;;;;14.44;59.25;101613.00;4994172;28;20336;-61
2023/06/20 06:31:26;;;;;;;4.57;1.65;;;;;;;14.39;59.38;101605.53;4996854;28;20049;-62
2023/06/20 06:33:56;;;;;;;4.10;1.38;;;;;;;14.36;59.38;101600.56;4997011;28;20549;-61
2023/06/20 06:36:24;;;;;;;4.25;1.25;;;;;;;14.42;59.07;101609.66;4997487;28;20030;-61
2023/06/20 06:38:51;;;;;;;8.88;1.80;;;;;;;14.34;59.18;101618.81;4996731;28;20026;-61
2023/06/20 06:41:18;;;;;;;6.00;1.55;;;;;;;14.28;59.44;101614.28;4996270;28;20073;-61
2023/06/20 06:43:47;;;;;;;5.00;1.95;;;;;;;14.37;59.08;101614.84;4996359;28;20050;-61
2023/06/20 06:46:13;;;;;;;6.88;2.10;;;;;;;14.16;60.19;101610.59;4996587;28;20038;-61
2023/06/20 06:48:39;;;;;;;5.13;1.83;;;;;;;14.03;60.71;101614.09;4996557;28;20442;-61
2023/06/20 06:51:06;;;;;;;4.75;1.35;;;;;;;14.02;60.67;101614.31;4996163;28;20117;-61
2023/06/20 06:53:33;;;;;;;6.97;1.95;;;;;;;14.03;60.77;101624.88;4996104;28;20057;-61
2023/06/20 06:55:59;;;;;;;4.60;1.67;;;;;;;13.98;60.96;101636.25;4996203;28;20072;-61
2023/06/20 06:58:25;;;;;;;7.53;2.08;;;;;;;14.13;60.53;101630.66;4996067;28;20588;-61
2023/06/20 07:00:52;;;;;;;5.15;1.58;;;;;;;14.02;60.70;101635.88;4995969;28;20054;-60
2023/06/20 07:03:18;;;;;;;6.10;1.65;;;;;;;13.96;60.74;101638.34;4996033;28;20058;-61
2023/06/20 07:05:44;;;;;;;3.50;1.27;;;;;;;13.91;60.84;101643.53;4996295;28;20539;-61
2023/06/20 07:08:10;;;;;;;6.53;1.77;;;;;;;13.82;61.86;101644.75;4995966;28;20038;-61
2023/06/20 07:10:37;;;;;;;7.20;2.13;;;;;;;13.47;62.51;101644.16;4995950;28;20057;-60
2023/06/20 07:13:05;;;;;;;5.30;1.55;;;;;;;13.48;62.56;101652.00;4995881;28;20023;-61
2023/06/20 07:15:32;;;;;;;3.90;1.52;;;;;;;13.59;62.09;101649.75;4995700;28;20042;-61
2023/06/20 07:17:58;;;;;;;6.53;2.10;;;;;;;13.90;61.20;101647.25;4995863;28;20026;-61
2023/06/20 07:20:25;;;;;;;7.82;1.88;;;;;;;13.67;61.72;101652.25;4995947;28;20050;-61
2023/06/20 07:22:51;;;;;;;6.07;1.67;;;;;;;13.84;61.05;101642.72;4995622;28;20085;-61
2023/06/20 07:25:19;;;;;;;3.55;1.50;;;;;;;13.70;61.51;101641.88;4995731;28;20101;-61
2023/06/20 07:27:45;;;;;;;4.68;1.50;;;;;;;13.63;62.07;101638.38;4995624;28;20034;-61
2023/06/20 07:30:11;;;;;;;6.40;2.10;;;;;;;13.75;61.58;101635.88;4995538;28;20030;-60
2023/06/20 07:32:38;;;;;;;3.15;1.40;;;;;;;13.50;62.19;101642.91;4995496;28;20038;-61
2023/06/20 07:35:04;;;;;;;4.43;1.50;;;;;;;13.30;62.74;101646.41;4995525;28;20022;-61
2023/06/20 07:37:30;;;;;;;7.20;2.08;;;;;;;12.93;63.80;101653.09;4995777;28;20023;-61
2023/06/20 07:39:57;;;;;;;5.80;2.03;;;;;;;13.34;62.96;101650.34;4994957;28;20065;-61
2023/06/20 07:42:23;;;;;;;4.20;1.90;;;;;;;13.48;61.99;101646.63;4995330;28;20400;-61
2023/06/20 07:44:49;;;;;;;4.28;1.83;;;;;;;13.58;61.34;101640.84;4995561;28;20029;-61
2023/06/20 07:47:15;;;;;;;3.42;1.40;;;;;;;13.41;61.60;101643.09;4995238;28;20109;-61
2023/06/20 07:49:42;;;;;;;4.07;1.40;;;;;;;13.43;61.96;101654.47;4995201;28;20033;-61
2023/06/20 07:52:09;;;;;;;3.10;1.40;;;;;;;13.13;62.66;101647.78;4995124;28;20165;-61
2023/06/20 07:54:35;;;;;;;5.35;1.90;;;;;;;13.12;62.37;101641.59;4995328;28;20050;-61
2023/06/20 07:57:02;;;;;;;2.75;1.35;;;;;;;12.84;63.71;101649.75;4995231;28;20026;-61
2023/06/20 07:59:28;;;;;;;2.47;1.35;;;;;;;12.94;63.09;101654.78;4995233;28;20160;-62
2023/06/20 08:01:54;;;;;;;3.70;1.33;;;;;;;12.79;63.73;101657.59;4995202;28;20113;-61
2023/06/20 08:04:20;;;;;;;4.97;1.30;;;;;;;12.52;64.24;101659.31;4994984;28;20022;-61
2023/06/20 08:06:47;;;;;;;2.83;0.95;;;;;;;12.47;64.75;101663.63;4994932;28;20026;-61
2023/06/20 08:09:13;;;;;;;4.22;1.80;;;;;;;13.02;63.01;101657.25;4995076;28;20135;-60
2023/06/20 08:11:39;;;;;;;4.15;1.80;;;;;;;12.53;64.39;101652.94;4994994;28;20421;-60
2023/06/20 08:14:05;;;;;;;6.53;1.70;;;;;;;12.22;65.55;101655.25;4994755;28;20379;-60
2023/06/20 08:16:32;;;;;;;6.07;1.42;;;;;;;12.32;65.03;101656.53;4994941;28;20093;-60
2023/06/20 08:18:58;;;;;;;7.45;1.52;;;;;;;12.17;65.66;101660.38;4994575;28;20037;-61
2023/06/20 08:21:24;;;;;;;2.90;1.42;;;;;;;12.23;65.64;101662.25;4994628;28;20022;-61
2023/06/20 08:23:51;;;;;;;8.93;1.50;;;;;;;12.37;64.87;101659.44;4994805;28;20053;-60
2023/06/20 08:26:17;;;;;;;4.20;1.40;;;;;;;12.14;65.27;101666.94;4994603;28;20483;-61
2023/06/20 08:28:43;;;;;;;3.00;1.17;;;;;;;12.28;65.15;101667.88;4994545;28;20030;-61
2023/06/20 08:31:09;;;;;;;2.10;1.05;;;;;;;12.25;65.19;101661.03;4994337;28;20041;-61
2023/06/20 08:33:35;;;;;;;5.82;1.40;;;;;;;12.29;65.36;101661.47;4994321;28;20030;-60
2023/06/20 08:36:02;;;;;;;3.05;1.30;;;;;;;12.29;64.63;101656.94;4994270;28;20103;-60
2023/06/20 08:38:28;;;;;;;6.03;1.60;;;;;;;11.93;66.45;101658.94;4994287;28;20127;-61
2023/06/20 08:40:54;;;;;;;4.32;1.33;;;;;;;11.98;65.98;101667.22;4993915;28;20045;-60
2023/06/20 08:43:20;;;;;;;3.42;1.42;;;;;;;11.57;67.49;101676.78;4994189;28;20029;-60
2023/06/20 08:45:47;;;;;;;5.05;1.27;;;;;;;11.63;67.50;101673.31;4994156;28;20022;-61
2023/06/20 08:48:14;;;;;;;3.35;1.35;;;;;;;11.81;66.66;101680.94;4994047;28;20085;-60
2023/06/20 08:50:40;;;;;;;10.55;2.20;;;;;;;11.80;66.30;101689.16;4993866;28;20034;-61
2023/06/20 08:53:09;;;;;;;4.82;1.23;;;;;;;11.66;66.63;101688.22;4993536;28;20029;-61
2023/06/20 08:55:39;;;;;;;6.35;1.00;;;;;;;11.93;65.84;101675.03;4993921;28;20468;-60
2023/06/20 08:58:09;;;;;;;1.90;1.00;;;;;;;12.12;65.03;101675.19;4993969;28;20026;-60
2023/06/20 09:00:38;;;;;;;2.47;1.42;;;;;;;11.80;65.78;101673.06;4994025;28;20022;-60
2023/06/20 09:03:04;;;;;;;3.83;1.38;;;;;;;11.71;65.92;101675.03;4993887;28;20109;-60
2023/06/20 09:05:41;;;;;;;3.28;1.35;;;;;;;12.20;64.71;101671.53;4993854;28;20026;-60
2023/06/20 09:08:11;;;;;;;7.00;1.02;;;;;;;12.13;64.45;101670.66;4994432;28;20034;-60
2023/06/20 09:10:39;;;;;;;2.17;1.08;;;;;;;12.15;64.32;101671.28;4993889;28;20509;-61
2023/06/20 09:13:06;;;;;;;4.07;1.20;;;;;;;12.09;64.21;101672.06;4993766;28;20376;-60
2023/06/20 09:15:37;;;;;;;2.70;1.17;;;;;;;12.01;64.41;101677.59;4993953;28;20030;-60
2023/06/20 09:18:06;;;;;;;2.33;1.17;;;;;;;11.82;64.91;101681.75;4993928;28;20529;-60
2023/06/20 09:20:33;;;;;;;3.63;1.30;;;;;;;11.85;64.60;101674.16;4993756;28;20030;-60
2023/06/20 09:23:00;;;;;;;5.38;1.50;;;;;;;11.85;64.69;101682.22;4994064;28;20418;-60
2023/06/20 09:25:29;;;;;;;3.30;1.58;;;;;;;11.98;64.24;101676.09;4993648;28;20025;-60
2023/06/20 09:27:56;;;;;;;4.53;1.30;;;;;;;11.95;64.42;101678.38;4994094;28;20442;-60
2023/06/20 09:30:23;;;;;;;2.75;1.00;;;;;;;11.95;64.09;101679.19;4993588;28;20027;-60
2023/06/20 09:32:49;;;;;;;2.92;1.00;;;;;;;11.70;64.96;101683.28;4993541;28;20035;-60
2023/06/20 09:35:16;;;;;;;6.15;1.35;;;;;;;11.66;65.01;101688.22;4993524;28;20356;-60
2023/06/20 09:37:47;;;;;;;2.20;0.90;;;;;;;11.62;65.09;101686.94;4993523;28;20025;-60
2023/06/20 09:40:15;;;;;;;3.63;0.93;;;;;;;11.67;65.21;101686.34;4993340;28;20042;-60
2023/06/20 09:42:43;;;;;;;2.88;1.23;;;;;;;11.46;65.42;101681.81;4993649;28;20023;-60
2023/06/20 09:45:14;;;;;;;1.73;1.00;;;;;;;11.43;66.15;101682.19;4993517;28;20444;-60
2023/06/20 09:47:41;;;;;;;3.53;1.13;;;;;;;11.34;66.07;101674.28;4993435;28;20049;-60
2023/06/20 09:50:13;;;;;;;4.00;1.10;;;;;;;11.34;66.09;101678.81;4993455;28;20038;-60
2023/06/20 09:52:48;;;;;;;3.20;1.20;;;;;;;11.39;65.96;101675.56;4993416;28;20026;-60
2023/06/20 09:55:15;;;;;;;;;;;;;;;11.70;64.97;101686.78;4993753;28;20026;-60
2023/06/20 09:58:01;;;;;;;4.47;1.15;;;;;;;11.53;65.18;101677.34;4993307;28;19921;-60
2023/06/20 10:00:30;;;;;;;1.85;0.85;;;;;;;11.39;65.62;101687.13;4993376;28;20038;-60
2023/06/20 10:03:00;;;;;;;3.42;1.00;;;;;;;11.40;65.61;101690.63;4994695;28;20026;-60
2023/06/20 10:05:28;;;;;;;4.18;1.08;;;;;;;11.52;64.97;101689.91;4997154;28;20114;-60
2023/06/20 10:07:58;;;;;;;4.30;1.02;;;;;;;11.43;65.25;101687.56;4997154;28;20026;-60
2023/06/20 10:10:24;;;;;;;2.38;0.98;;;;;;;11.34;65.54;101690.38;4996990;28;20027;-60
2023/06/20 10:12:51;;;;;;;3.03;1.00;;;;;;;11.43;65.22;101693.75;4996973;28;20362;-59
2023/06/20 10:15:18;;;;;;;4.53;0.80;;;;;;;11.35;65.45;101692.03;4997080;28;20057;-60
2023/06/20 10:17:49;;;;;;;1.73;0.70;;;;;;;11.47;64.97;101691.53;4996902;28;20037;-60
2023/06/20 10:20:37;;;;;;;1.10;0.60;;;;;;;11.56;64.67;101687.69;4996982;28;20026;-60
2023/06/20 10:23:10;;;;;;;3.58;1.08;;;;;;;11.46;64.72;101687.19;4996752;28;20045;-60
2023/06/20 10:25:53;;;;;;;1.80;1.02;;;;;;;11.39;64.92;101694.34;4996783;28;20113;-60
2023/06/20 10:28:21;;;;;;;3.95;1.10;;;;;;;11.23;65.29;101698.91;4996713;28;20412;-60
2023/06/20 10:30:50;;;;;;;2.53;1.00;;;;;;;11.09;65.80;101695.22;4996653;28;20030;-60
2023/06/20 10:33:35;;;;;;;3.30;1.02;;;;;;;11.20;65.46;101688.56;4996590;28;20463;-60
2023/06/20 10:36:06;;;;;;;3.40;0.80;;;;;;;11.33;65.11;101691.41;4996706;28;20030;-59
2023/06/20 10:38:42;;;;;;;1.38;0.80;;;;;;;11.27;65.06;101705.56;4996819;28;20037;-60
2023/06/20 10:41:25;;;;;;;3.03;1.17;;;;;;;11.11;65.54;101697.75;4996236;28;20411;-59
2023/06/20 10:43:52;;;;;;;3.17;1.08;;;;;;;11.10;65.56;101698.72;4996404;28;20125;-59
2023/06/20 10:46:28;;;;;;;2.15;0.88;;;;;;;10.98;65.95;101700.25;4996330;28;20027;-59
2023/06/20 10:48:55;;;;;;;4.03;1.13;;;;;;;10.97;66.12;101701.28;4996580;28;20030;-60
2023/06/20 10:51:21;;;;;;;3.60;1.23;;;;;;;10.94;66.48;101696.28;4996134;28;20027;-60
2023/06/20 10:53:47;;;;;;;4.68;0.90;;;;;;;10.99;66.11;101702.75;4997256;28;20024;-60
2023/06/20 10:56:26;;;;;;;2.47;0.80;;;;;;;10.83;66.44;101698.44;4996275;28;20046;-60
2023/06/20 10:58:53;;;;;;;2.40;1.00;;;;;;;10.65;67.00;101695.28;4996427;28;20023;-59
2023/06/20 11:01:19;;;;;;;3.47;1.20;;;;;;;10.55;67.75;101692.09;4995943;28;20033;-60
2023/06/20 11:03:46;;;;;;;1.90;0.75;;;;;;;10.53;68.11;101688.75;4996675;28;20100;-59
2023/06/20 11:06:17;;;;;;;2.90;0.80;;;;;;;10.53;67.95;101691.44;4996012;28;20354;-59
2023/06/20 11:08:47;;;;;;;2.65;0.77;;;;;;;10.60;67.60;101692.34;4996217;28;20497;-59
2023/06/20 11:11:13;;;;;;;1.95;0.90;;;;;;;10.72;66.94;101690.88;4995946;28;20565;-59
2023/06/20 11:13:45;;;;;;;2.90;0.93;;;;;;;10.70;66.93;101692.91;4995833;28;20109;-59
2023/06/20 11:16:19;;;;;;;2.08;0.90;;;;;;;10.47;67.78;101697.53;4995316;28;20030;-60
2023/06/20 11:18:46;;;;;;;1.35;0.90;;;;;;;10.45;67.53;101696.88;4995810;28;20021;-59
2023/06/20 11:21:14;;;;;;;2.50;0.85;;;;;;;10.47;67.39;101697.53;4995663;28;20037;-59
2023/06/20 11:23:41;;;;;;;2.83;1.00;;;;;;;10.79;66.96;101702.50;4995981;28;20045;-59
2023/06/20 11:26:07;;;;;;;2.55;0.90;;;;;;;10.44;67.56;101711.28;4995733;28;20380;-59
2023/06/20 11:28:35;;;;;;;3.30;0.90;;;;;;;10.53;67.75;101710.16;5010652;28;20494;-60
2023/06/20 11:31:10;;;;;;;2.25;1.00;;;;;;;10.37;67.82;101713.00;4995549;28;20031;-59